sensor_id;sensor_type;location;lat;lon;timestamp;temperature;humidity
33580;DHT22;19909;43.644;-79.438;2023-07-13T00:00:47;21.30;58.80
33580;DHT22;19909;43.644;-79.438;2023-07-13T00:03:13;21.30;58.80
33580;DHT22;19909;43.644;-79.438;2023-07-13T00:05:40;21.40;59.00
33580;DHT22;19909;43.644;-79.438;2023-07-13T00:08:07;21.40;59.30
33580;DHT22;19909;43.644;-79.438;2023-07-13T00:10:38;21.40;59.40
33580;DHT22;19909;43.644;-79.438;2023-07-13T00:13:04;21.40;58.90
33580;DHT22;19909;43.644;-79.438;2023-07-13T00:15:30;21.40;58.40
33580;DHT22;19909;43.644;-79.438;2023-07-13T00:17:57;21.40;58.40
33580;DHT22;19909;43.644;-79.438;2023-07-13T00:20:25;21.30;58.60
33580;DHT22;19909;43.644;-79.438;2023-07-13T00:22:52;21.40;59.40
33580;DHT22;19909;43.644;-79.438;2023-07-13T00:25:20;21.40;59.60
33580;DHT22;19909;43.644;-79.438;2023-07-13T00:27:47;21.40;59.00
33580;DHT22;19909;43.644;-79.438;2023-07-13T00:30:17;21.30;58.20
33580;DHT22;19909;43.644;-79.438;2023-07-13T00:32:43;21.30;57.70
33580;DHT22;19909;43.644;-79.438;2023-07-13T00:35:10;21.30;57.50
33580;DHT22;19909;43.644;-79.438;2023-07-13T00:37:36;21.20;57.10
33580;DHT22;19909;43.644;-79.438;2023-07-13T00:40:07;21.20;57.00
33580;DHT22;19909;43.644;-79.438;2023-07-13T00:42:33;21.10;56.80
33580;DHT22;19909;43.644;-79.438;2023-07-13T00:47:49;21.00;56.40
33580;DHT22;19909;43.644;-79.438;2023-07-13T00:50:16;21.00;56.30
33580;DHT22;19909;43.644;-79.438;2023-07-13T00:52:46;20.90;56.20
33580;DHT22;19909;43.644;-79.438;2023-07-13T00:55:14;20.90;56.20
33580;DHT22;19909;43.644;-79.438;2023-07-13T00:57:41;20.90;56.10
33580;DHT22;19909;43.644;-79.438;2023-07-13T01:00:08;20.80;55.90
33580;DHT22;19909;43.644;-79.438;2023-07-13T01:02:37;20.80;55.90
33580;DHT22;19909;43.644;-79.438;2023-07-13T01:05:15;20.70;55.90
33580;DHT22;19909;43.644;-79.438;2023-07-13T01:07:42;20.70;55.80
33580;DHT22;19909;43.644;-79.438;2023-07-13T01:10:10;20.70;55.90
33580;DHT22;19909;43.644;-79.438;2023-07-13T01:12:37;20.60;55.80
33580;DHT22;19909;43.644;-79.438;2023-07-13T01:15:04;20.60;55.70
33580;DHT22;19909;43.644;-79.438;2023-07-13T01:17:33;20.50;55.80
33580;DHT22;19909;43.644;-79.438;2023-07-13T01:20:00;20.50;55.60
33580;DHT22;19909;43.644;-79.438;2023-07-13T01:22:26;20.50;55.60
33580;DHT22;19909;43.644;-79.438;2023-07-13T01:24:54;20.50;55.60
33580;DHT22;19909;43.644;-79.438;2023-07-13T01:27:25;20.40;55.60
33580;DHT22;19909;43.644;-79.438;2023-07-13T01:29:52;20.40;56.00
33580;DHT22;19909;43.644;-79.438;2023-07-13T01:32:23;20.40;56.60
33580;DHT22;19909;43.644;-79.438;2023-07-13T01:34:54;20.40;57.50
33580;DHT22;19909;43.644;-79.438;2023-07-13T01:37:21;20.50;57.80
33580;DHT22;19909;43.644;-79.438;2023-07-13T01:39:47;20.50;57.80
33580;DHT22;19909;43.644;-79.438;2023-07-13T01:42:14;20.60;57.90
33580;DHT22;19909;43.644;-79.438;2023-07-13T01:44:41;20.60;57.80
33580;DHT22;19909;43.644;-79.438;2023-07-13T01:47:07;20.70;58.20
33580;DHT22;19909;43.644;-79.438;2023-07-13T01:49:33;20.80;58.00
33580;DHT22;19909;43.644;-79.438;2023-07-13T01:52:00;20.80;57.10
33580;DHT22;19909;43.644;-79.438;2023-07-13T01:54:26;20.80;56.80
33580;DHT22;19909;43.644;-79.438;2023-07-13T01:56:52;20.80;56.50
33580;DHT22;19909;43.644;-79.438;2023-07-13T01:59:19;20.80;56.70
33580;DHT22;19909;43.644;-79.438;2023-07-13T02:01:45;20.70;57.30
33580;DHT22;19909;43.644;-79.438;2023-07-13T02:04:11;20.70;58.10
33580;DHT22;19909;43.644;-79.438;2023-07-13T02:06:37;20.70;58.00
33580;DHT22;19909;43.644;-79.438;2023-07-13T02:09:03;20.80;58.70
33580;DHT22;19909;43.644;-79.438;2023-07-13T02:11:29;20.80;59.50
33580;DHT22;19909;43.644;-79.438;2023-07-13T02:14:01;20.90;59.50
33580;DHT22;19909;43.644;-79.438;2023-07-13T02:16:29;20.90;59.20
33580;DHT22;19909;43.644;-79.438;2023-07-13T02:18:55;21.00;59.60
33580;DHT22;19909;43.644;-79.438;2023-07-13T02:21:22;21.00;59.30
33580;DHT22;19909;43.644;-79.438;2023-07-13T02:23:49;21.00;58.70
33580;DHT22;19909;43.644;-79.438;2023-07-13T02:26:16;21.00;58.80
33580;DHT22;19909;43.644;-79.438;2023-07-13T02:28:42;21.00;59.40
33580;DHT22;19909;43.644;-79.438;2023-07-13T02:31:11;21.00;60.00
33580;DHT22;19909;43.644;-79.438;2023-07-13T02:33:37;21.00;59.10
33580;DHT22;19909;43.644;-79.438;2023-07-13T02:36:04;21.00;59.10
33580;DHT22;19909;43.644;-79.438;2023-07-13T02:38:32;21.00;59.70
33580;DHT22;19909;43.644;-79.438;2023-07-13T02:41:00;21.00;59.90
33580;DHT22;19909;43.644;-79.438;2023-07-13T02:43:27;21.00;59.10
33580;DHT22;19909;43.644;-79.438;2023-07-13T02:45:53;21.00;59.10
33580;DHT22;19909;43.644;-79.438;2023-07-13T02:48:19;21.00;59.70
33580;DHT22;19909;43.644;-79.438;2023-07-13T02:50:45;21.00;60.40
33580;DHT22;19909;43.644;-79.438;2023-07-13T02:53:12;21.00;59.30
33580;DHT22;19909;43.644;-79.438;2023-07-13T02:55:38;21.00;59.30
33580;DHT22;19909;43.644;-79.438;2023-07-13T02:58:06;21.00;60.10
33580;DHT22;19909;43.644;-79.438;2023-07-13T03:00:33;21.00;60.60
33580;DHT22;19909;43.644;-79.438;2023-07-13T03:02:59;21.00;59.60
33580;DHT22;19909;43.644;-79.438;2023-07-13T03:05:26;21.00;59.40
33580;DHT22;19909;43.644;-79.438;2023-07-13T03:07:52;20.90;60.30
33580;DHT22;19909;43.644;-79.438;2023-07-13T03:10:18;21.00;61.30
33580;DHT22;19909;43.644;-79.438;2023-07-13T03:12:44;21.00;61.80
33580;DHT22;19909;43.644;-79.438;2023-07-13T03:15:10;21.10;61.00
33580;DHT22;19909;43.644;-79.438;2023-07-13T03:17:36;21.10;61.20
33580;DHT22;19909;43.644;-79.438;2023-07-13T03:20:02;21.10;61.00
33580;DHT22;19909;43.644;-79.438;2023-07-13T03:22:29;21.10;61.60
33580;DHT22;19909;43.644;-79.438;2023-07-13T03:24:55;21.10;60.70
33580;DHT22;19909;43.644;-79.438;2023-07-13T03:27:21;21.10;59.80
33580;DHT22;19909;43.644;-79.438;2023-07-13T03:29:47;21.10;60.00
33580;DHT22;19909;43.644;-79.438;2023-07-13T03:32:13;21.10;60.70
33580;DHT22;19909;43.644;-79.438;2023-07-13T03:34:40;21.10;60.40
33580;DHT22;19909;43.644;-79.438;2023-07-13T03:37:06;21.10;60.40
33580;DHT22;19909;43.644;-79.438;2023-07-13T03:39:32;21.10;59.50
33580;DHT22;19909;43.644;-79.438;2023-07-13T03:41:58;21.10;59.20
33580;DHT22;19909;43.644;-79.438;2023-07-13T03:44:24;21.00;59.80
33580;DHT22;19909;43.644;-79.438;2023-07-13T03:46:50;21.00;60.90
33580;DHT22;19909;43.644;-79.438;2023-07-13T03:49:16;21.00;60.40
33580;DHT22;19909;43.644;-79.438;2023-07-13T03:51:42;21.10;61.00
33580;DHT22;19909;43.644;-79.438;2023-07-13T03:54:08;21.10;59.50
33580;DHT22;19909;43.644;-79.438;2023-07-13T03:56:35;21.10;59.50
33580;DHT22;19909;43.644;-79.438;2023-07-13T03:59:01;21.00;60.20
33580;DHT22;19909;43.644;-79.438;2023-07-13T04:01:28;21.00;60.70
33580;DHT22;19909;43.644;-79.438;2023-07-13T04:03:54;21.00;60.50
33580;DHT22;19909;43.644;-79.438;2023-07-13T04:06:23;21.00;60.50
33580;DHT22;19909;43.644;-79.438;2023-07-13T04:08:52;21.10;60.30
33580;DHT22;19909;43.644;-79.438;2023-07-13T04:11:20;21.10;59.50
33580;DHT22;19909;43.644;-79.438;2023-07-13T04:13:48;21.10;59.50
33580;DHT22;19909;43.644;-79.438;2023-07-13T04:16:15;21.00;60.90
33580;DHT22;19909;43.644;-79.438;2023-07-13T04:18:41;21.00;61.60
33580;DHT22;19909;43.644;-79.438;2023-07-13T04:21:08;21.00;60.80
33580;DHT22;19909;43.644;-79.438;2023-07-13T04:23:38;21.10;60.80
33580;DHT22;19909;43.644;-79.438;2023-07-13T04:26:04;21.10;61.10
33580;DHT22;19909;43.644;-79.438;2023-07-13T04:28:30;21.10;61.00
33580;DHT22;19909;43.644;-79.438;2023-07-13T04:30:57;21.10;59.70
33580;DHT22;19909;43.644;-79.438;2023-07-13T04:33:23;21.10;59.50
33580;DHT22;19909;43.644;-79.438;2023-07-13T04:35:51;21.10;60.00
33580;DHT22;19909;43.644;-79.438;2023-07-13T04:38:29;21.10;61.10
33580;DHT22;19909;43.644;-79.438;2023-07-13T04:41:01;21.00;60.70
33580;DHT22;19909;43.644;-79.438;2023-07-13T04:43:28;21.00;60.60
33580;DHT22;19909;43.644;-79.438;2023-07-13T04:45:55;21.10;61.00
33580;DHT22;19909;43.644;-79.438;2023-07-13T04:48:22;21.10;61.40
33580;DHT22;19909;43.644;-79.438;2023-07-13T04:50:58;21.10;60.30
33580;DHT22;19909;43.644;-79.438;2023-07-13T04:53:24;21.10;59.30
33580;DHT22;19909;43.644;-79.438;2023-07-13T04:55:51;21.10;59.80
33580;DHT22;19909;43.644;-79.438;2023-07-13T04:58:17;21.10;60.70
33580;DHT22;19909;43.644;-79.438;2023-07-13T05:00:43;21.10;60.70
33580;DHT22;19909;43.644;-79.438;2023-07-13T05:03:09;21.10;60.70
33580;DHT22;19909;43.644;-79.438;2023-07-13T05:05:35;21.10;60.80
33580;DHT22;19909;43.644;-79.438;2023-07-13T05:08:02;21.10;61.20
33580;DHT22;19909;43.644;-79.438;2023-07-13T05:10:28;21.10;60.90
33580;DHT22;19909;43.644;-79.438;2023-07-13T05:12:54;21.10;59.80
33580;DHT22;19909;43.644;-79.438;2023-07-13T05:15:23;21.10;59.50
33580;DHT22;19909;43.644;-79.438;2023-07-13T05:17:50;21.00;59.90
33580;DHT22;19909;43.644;-79.438;2023-07-13T05:20:17;21.10;61.00
33580;DHT22;19909;43.644;-79.438;2023-07-13T05:22:44;21.00;60.70
33580;DHT22;19909;43.644;-79.438;2023-07-13T05:25:13;21.10;60.70
33580;DHT22;19909;43.644;-79.438;2023-07-13T05:27:39;21.10;61.20
33580;DHT22;19909;43.644;-79.438;2023-07-13T05:30:06;21.10;61.70
33580;DHT22;19909;43.644;-79.438;2023-07-13T05:32:33;21.20;62.30
33580;DHT22;19909;43.644;-79.438;2023-07-13T05:34:59;21.20;63.50
33580;DHT22;19909;43.644;-79.438;2023-07-13T05:37:25;21.20;62.60
33580;DHT22;19909;43.644;-79.438;2023-07-13T05:39:51;21.20;62.80
33580;DHT22;19909;43.644;-79.438;2023-07-13T05:42:18;21.20;62.70
33580;DHT22;19909;43.644;-79.438;2023-07-13T05:44:44;21.20;63.00
33580;DHT22;19909;43.644;-79.438;2023-07-13T05:47:10;21.20;63.70
33580;DHT22;19909;43.644;-79.438;2023-07-13T05:49:36;21.30;63.60
33580;DHT22;19909;43.644;-79.438;2023-07-13T05:52:02;21.30;63.40
33580;DHT22;19909;43.644;-79.438;2023-07-13T05:54:29;21.30;63.40
33580;DHT22;19909;43.644;-79.438;2023-07-13T05:56:55;21.30;63.80
33580;DHT22;19909;43.644;-79.438;2023-07-13T05:59:21;21.30;64.00
33580;DHT22;19909;43.644;-79.438;2023-07-13T06:01:48;21.40;64.10
33580;DHT22;19909;43.644;-79.438;2023-07-13T06:04:14;21.40;63.80
33580;DHT22;19909;43.644;-79.438;2023-07-13T06:06:40;21.40;64.00
33580;DHT22;19909;43.644;-79.438;2023-07-13T06:09:06;21.40;63.90
33580;DHT22;19909;43.644;-79.438;2023-07-13T06:11:33;21.40;63.80
33580;DHT22;19909;43.644;-79.438;2023-07-13T06:14:00;21.40;63.80
33580;DHT22;19909;43.644;-79.438;2023-07-13T06:16:26;21.50;63.40
33580;DHT22;19909;43.644;-79.438;2023-07-13T06:18:53;21.50;63.40
33580;DHT22;19909;43.644;-79.438;2023-07-13T06:21:21;21.50;63.70
33580;DHT22;19909;43.644;-79.438;2023-07-13T06:23:50;21.50;63.50
33580;DHT22;19909;43.644;-79.438;2023-07-13T06:26:17;21.50;64.50
33580;DHT22;19909;43.644;-79.438;2023-07-13T06:28:44;21.50;63.90
33580;DHT22;19909;43.644;-79.438;2023-07-13T06:31:12;21.50;63.40
33580;DHT22;19909;43.644;-79.438;2023-07-13T06:33:38;21.50;63.50
33580;DHT22;19909;43.644;-79.438;2023-07-13T06:36:06;21.50;63.50
33580;DHT22;19909;43.644;-79.438;2023-07-13T06:38:33;21.50;64.20
33580;DHT22;19909;43.644;-79.438;2023-07-13T06:40:59;21.50;64.30
33580;DHT22;19909;43.644;-79.438;2023-07-13T06:43:26;21.50;64.70
33580;DHT22;19909;43.644;-79.438;2023-07-13T06:45:54;21.50;65.10
33580;DHT22;19909;43.644;-79.438;2023-07-13T06:48:21;21.50;65.50
33580;DHT22;19909;43.644;-79.438;2023-07-13T06:50:49;21.60;65.90
33580;DHT22;19909;43.644;-79.438;2023-07-13T06:53:17;21.60;66.20
33580;DHT22;19909;43.644;-79.438;2023-07-13T06:55:44;21.50;66.60
33580;DHT22;19909;43.644;-79.438;2023-07-13T06:58:11;21.60;66.70
33580;DHT22;19909;43.644;-79.438;2023-07-13T07:00:37;21.60;67.10
33580;DHT22;19909;43.644;-79.438;2023-07-13T07:03:05;21.60;67.40
33580;DHT22;19909;43.644;-79.438;2023-07-13T07:05:32;21.60;67.50
33580;DHT22;19909;43.644;-79.438;2023-07-13T07:07:58;21.60;67.70
33580;DHT22;19909;43.644;-79.438;2023-07-13T07:10:25;21.60;68.10
33580;DHT22;19909;43.644;-79.438;2023-07-13T07:12:52;21.60;68.40
33580;DHT22;19909;43.644;-79.438;2023-07-13T07:15:18;21.60;68.60
33580;DHT22;19909;43.644;-79.438;2023-07-13T07:17:45;21.60;68.90
33580;DHT22;19909;43.644;-79.438;2023-07-13T07:20:11;21.60;69.10
33580;DHT22;19909;43.644;-79.438;2023-07-13T07:22:38;21.60;69.30
33580;DHT22;19909;43.644;-79.438;2023-07-13T07:25:04;21.60;69.30
33580;DHT22;19909;43.644;-79.438;2023-07-13T07:27:30;21.60;68.90
33580;DHT22;19909;43.644;-79.438;2023-07-13T07:29:56;21.70;69.20
33580;DHT22;19909;43.644;-79.438;2023-07-13T07:32:25;21.60;69.20
33580;DHT22;19909;43.644;-79.438;2023-07-13T07:34:51;21.60;69.50
33580;DHT22;19909;43.644;-79.438;2023-07-13T07:37:17;21.60;69.80
33580;DHT22;19909;43.644;-79.438;2023-07-13T07:39:43;21.60;70.10
33580;DHT22;19909;43.644;-79.438;2023-07-13T07:42:10;21.60;69.70
33580;DHT22;19909;43.644;-79.438;2023-07-13T07:44:39;21.60;69.70
33580;DHT22;19909;43.644;-79.438;2023-07-13T07:47:06;21.60;69.80
33580;DHT22;19909;43.644;-79.438;2023-07-13T07:49:33;21.60;69.50
33580;DHT22;19909;43.644;-79.438;2023-07-13T07:51:59;21.70;68.70
33580;DHT22;19909;43.644;-79.438;2023-07-13T07:54:25;21.70;68.70
33580;DHT22;19909;43.644;-79.438;2023-07-13T07:56:51;21.70;68.20
33580;DHT22;19909;43.644;-79.438;2023-07-13T07:59:18;21.70;68.70
33580;DHT22;19909;43.644;-79.438;2023-07-13T08:01:45;21.70;69.60
33580;DHT22;19909;43.644;-79.438;2023-07-13T08:04:13;21.70;68.90
33580;DHT22;19909;43.644;-79.438;2023-07-13T08:06:39;21.70;69.30
33580;DHT22;19909;43.644;-79.438;2023-07-13T08:09:05;21.70;69.10
33580;DHT22;19909;43.644;-79.438;2023-07-13T08:11:32;21.70;69.60
33580;DHT22;19909;43.644;-79.438;2023-07-13T08:13:58;21.70;70.00
33580;DHT22;19909;43.644;-79.438;2023-07-13T08:16:24;21.70;70.10
33580;DHT22;19909;43.644;-79.438;2023-07-13T08:18:51;21.70;70.40
33580;DHT22;19909;43.644;-79.438;2023-07-13T08:21:18;21.70;70.40
33580;DHT22;19909;43.644;-79.438;2023-07-13T08:23:45;21.70;70.40
33580;DHT22;19909;43.644;-79.438;2023-07-13T08:26:12;21.70;70.00
33580;DHT22;19909;43.644;-79.438;2023-07-13T08:28:38;21.70;69.70
33580;DHT22;19909;43.644;-79.438;2023-07-13T08:31:05;21.80;70.50
33580;DHT22;19909;43.644;-79.438;2023-07-13T08:33:35;21.70;70.80
33580;DHT22;19909;43.644;-79.438;2023-07-13T08:36:02;21.80;70.80
33580;DHT22;19909;43.644;-79.438;2023-07-13T08:38:28;21.80;70.90
33580;DHT22;19909;43.644;-79.438;2023-07-13T08:40:56;21.70;70.90
33580;DHT22;19909;43.644;-79.438;2023-07-13T08:43:29;21.80;71.00
33580;DHT22;19909;43.644;-79.438;2023-07-13T08:46:20;21.70;71.20
33580;DHT22;19909;43.644;-79.438;2023-07-13T08:48:52;21.70;71.20
33580;DHT22;19909;43.644;-79.438;2023-07-13T08:56:45;21.70;70.90
33580;DHT22;19909;43.644;-79.438;2023-07-13T08:59:17;21.80;70.90
33580;DHT22;19909;43.644;-79.438;2023-07-13T09:01:53;21.70;71.10
33580;DHT22;19909;43.644;-79.438;2023-07-13T09:04:23;21.80;71.00
33580;DHT22;19909;43.644;-79.438;2023-07-13T09:09:36;21.80;71.20
33580;DHT22;19909;43.644;-79.438;2023-07-13T09:14:53;21.80;71.40
33580;DHT22;19909;43.644;-79.438;2023-07-13T09:17:31;21.80;71.50
33580;DHT22;19909;43.644;-79.438;2023-07-13T09:22:54;21.80;71.60
33580;DHT22;19909;43.644;-79.438;2023-07-13T09:25:30;21.80;71.30
33580;DHT22;19909;43.644;-79.438;2023-07-13T09:28:14;21.80;70.90
33580;DHT22;19909;43.644;-79.438;2023-07-13T09:33:10;21.80;71.20
33580;DHT22;19909;43.644;-79.438;2023-07-13T09:35:36;21.80;71.30
33580;DHT22;19909;43.644;-79.438;2023-07-13T09:38:14;21.80;71.30
33580;DHT22;19909;43.644;-79.438;2023-07-13T09:43:24;21.80;71.20
33580;DHT22;19909;43.644;-79.438;2023-07-13T09:45:51;21.80;71.80
33580;DHT22;19909;43.644;-79.438;2023-07-13T09:48:18;21.80;71.40
33580;DHT22;19909;43.644;-79.438;2023-07-13T09:50:44;21.80;71.20
33580;DHT22;19909;43.644;-79.438;2023-07-13T09:53:16;21.80;68.90
33580;DHT22;19909;43.644;-79.438;2023-07-13T09:55:45;21.80;67.70
33580;DHT22;19909;43.644;-79.438;2023-07-13T09:58:15;21.70;68.30
33580;DHT22;19909;43.644;-79.438;2023-07-13T10:00:44;21.70;68.90
33580;DHT22;19909;43.644;-79.438;2023-07-13T10:03:25;21.70;69.70
33580;DHT22;19909;43.644;-79.438;2023-07-13T10:05:51;21.70;70.50
33580;DHT22;19909;43.644;-79.438;2023-07-13T10:08:28;21.70;71.10
33580;DHT22;19909;43.644;-79.438;2023-07-13T10:11:28;21.70;71.50
33580;DHT22;19909;43.644;-79.438;2023-07-13T10:14:02;21.60;71.80
33580;DHT22;19909;43.644;-79.438;2023-07-13T10:16:30;21.70;72.00
33580;DHT22;19909;43.644;-79.438;2023-07-13T10:19:08;21.70;72.20
33580;DHT22;19909;43.644;-79.438;2023-07-13T10:22:00;21.70;72.40
33580;DHT22;19909;43.644;-79.438;2023-07-13T10:24:32;21.70;72.60
33580;DHT22;19909;43.644;-79.438;2023-07-13T10:29:37;21.70;71.90
33580;DHT22;19909;43.644;-79.438;2023-07-13T10:32:11;21.70;72.30
33580;DHT22;19909;43.644;-79.438;2023-07-13T10:34:39;21.70;72.20
33580;DHT22;19909;43.644;-79.438;2023-07-13T10:37:07;21.70;72.30
33580;DHT22;19909;43.644;-79.438;2023-07-13T10:39:41;21.70;72.00
33580;DHT22;19909;43.644;-79.438;2023-07-13T10:42:15;21.80;72.20
33580;DHT22;19909;43.644;-79.438;2023-07-13T10:44:43;21.80;72.20
33580;DHT22;19909;43.644;-79.438;2023-07-13T10:47:15;21.80;72.30
33580;DHT22;19909;43.644;-79.438;2023-07-13T10:49:44;21.80;71.80
33580;DHT22;19909;43.644;-79.438;2023-07-13T10:52:52;21.80;71.70
33580;DHT22;19909;43.644;-79.438;2023-07-13T10:55:41;21.80;71.80
33580;DHT22;19909;43.644;-79.438;2023-07-13T10:58:22;21.80;71.90
33580;DHT22;19909;43.644;-79.438;2023-07-13T11:01:02;21.80;71.80
33580;DHT22;19909;43.644;-79.438;2023-07-13T11:03:27;21.90;72.10
33580;DHT22;19909;43.644;-79.438;2023-07-13T11:08:38;21.90;72.00
33580;DHT22;19909;43.644;-79.438;2023-07-13T11:14:03;21.90;70.20
33580;DHT22;19909;43.644;-79.438;2023-07-13T11:16:37;21.90;68.20
33580;DHT22;19909;43.644;-79.438;2023-07-13T11:21:33;21.80;69.20
33580;DHT22;19909;43.644;-79.438;2023-07-13T11:24:13;21.80;69.00
33580;DHT22;19909;43.644;-79.438;2023-07-13T11:26:51;21.80;69.20
33580;DHT22;19909;43.644;-79.438;2023-07-13T11:31:52;21.70;67.00
33580;DHT22;19909;43.644;-79.438;2023-07-13T11:34:30;21.70;67.90
33580;DHT22;19909;43.644;-79.438;2023-07-13T11:36:59;21.70;68.80
33580;DHT22;19909;43.644;-79.438;2023-07-13T11:39:31;21.70;68.40
33580;DHT22;19909;43.644;-79.438;2023-07-13T11:42:02;21.70;68.50
33580;DHT22;19909;43.644;-79.438;2023-07-13T11:44:30;21.70;68.00
33580;DHT22;19909;43.644;-79.438;2023-07-13T11:46:59;21.70;66.50
33580;DHT22;19909;43.644;-79.438;2023-07-13T11:49:31;21.60;66.40
33580;DHT22;19909;43.644;-79.438;2023-07-13T11:51:58;21.60;67.80
33580;DHT22;19909;43.644;-79.438;2023-07-13T11:54:28;21.60;68.00
33580;DHT22;19909;43.644;-79.438;2023-07-13T11:57:01;21.60;67.90
33580;DHT22;19909;43.644;-79.438;2023-07-13T11:59:30;21.60;67.80
33580;DHT22;19909;43.644;-79.438;2023-07-13T12:01:58;21.70;68.50
33580;DHT22;19909;43.644;-79.438;2023-07-13T12:04:29;21.70;68.50
33580;DHT22;19909;43.644;-79.438;2023-07-13T12:07:16;21.70;68.10
33580;DHT22;19909;43.644;-79.438;2023-07-13T12:09:43;21.70;66.90
33580;DHT22;19909;43.644;-79.438;2023-07-13T12:12:19;21.70;67.00
33580;DHT22;19909;43.644;-79.438;2023-07-13T12:14:45;21.70;68.00
33580;DHT22;19909;43.644;-79.438;2023-07-13T12:17:18;21.70;68.00
33580;DHT22;19909;43.644;-79.438;2023-07-13T12:19:45;21.70;68.70
33580;DHT22;19909;43.644;-79.438;2023-07-13T12:22:13;21.70;69.70
33580;DHT22;19909;43.644;-79.438;2023-07-13T12:24:43;21.70;68.70
33580;DHT22;19909;43.644;-79.438;2023-07-13T12:27:22;21.70;67.20
33580;DHT22;19909;43.644;-79.438;2023-07-13T12:32:27;21.70;68.00
33580;DHT22;19909;43.644;-79.438;2023-07-13T12:34:56;21.70;68.00
33580;DHT22;19909;43.644;-79.438;2023-07-13T12:37:23;21.70;67.70
33580;DHT22;19909;43.644;-79.438;2023-07-13T12:39:50;21.70;68.20
33580;DHT22;19909;43.644;-79.438;2023-07-13T12:42:29;21.70;68.50
33580;DHT22;19909;43.644;-79.438;2023-07-13T12:47:42;21.80;68.80
33580;DHT22;19909;43.644;-79.438;2023-07-13T12:50:15;21.80;69.30
33580;DHT22;19909;43.644;-79.438;2023-07-13T12:52:43;21.80;69.60
33580;DHT22;19909;43.644;-79.438;2023-07-13T12:55:16;21.80;69.00
33580;DHT22;19909;43.644;-79.438;2023-07-13T12:58:03;21.90;69.30
33580;DHT22;19909;43.644;-79.438;2023-07-13T13:00:36;21.90;70.10
33580;DHT22;19909;43.644;-79.438;2023-07-13T13:03:30;21.90;69.40
33580;DHT22;19909;43.644;-79.438;2023-07-13T13:08:34;22.00;68.50
33580;DHT22;19909;43.644;-79.438;2023-07-13T13:11:02;22.00;68.70
33580;DHT22;19909;43.644;-79.438;2023-07-13T13:13:28;22.00;69.20
33580;DHT22;19909;43.644;-79.438;2023-07-13T13:15:54;22.00;66.80
33580;DHT22;19909;43.644;-79.438;2023-07-13T13:18:22;22.00;65.80
33580;DHT22;19909;43.644;-79.438;2023-07-13T13:20:52;21.90;66.20
33580;DHT22;19909;43.644;-79.438;2023-07-13T13:23:20;21.90;67.30
33580;DHT22;19909;43.644;-79.438;2023-07-13T13:25:49;21.80;67.40
33580;DHT22;19909;43.644;-79.438;2023-07-13T13:28:18;21.90;68.30
33580;DHT22;19909;43.644;-79.438;2023-07-13T13:30:46;21.90;67.70
33580;DHT22;19909;43.644;-79.438;2023-07-13T13:33:17;21.80;66.10
33580;DHT22;19909;43.644;-79.438;2023-07-13T13:35:43;21.80;66.50
33580;DHT22;19909;43.644;-79.438;2023-07-13T13:38:30;21.70;66.90
33580;DHT22;19909;43.644;-79.438;2023-07-13T13:40:56;21.70;67.50
33580;DHT22;19909;43.644;-79.438;2023-07-13T13:43:24;21.70;67.70
33580;DHT22;19909;43.644;-79.438;2023-07-13T13:45:56;21.70;67.70
33580;DHT22;19909;43.644;-79.438;2023-07-13T13:48:32;21.70;67.60
33580;DHT22;19909;43.644;-79.438;2023-07-13T13:51:00;21.70;65.90
33580;DHT22;19909;43.644;-79.438;2023-07-13T13:53:27;21.70;66.20
33580;DHT22;19909;43.644;-79.438;2023-07-13T13:55:53;21.70;66.40
33580;DHT22;19909;43.644;-79.438;2023-07-13T13:58:20;21.60;66.90
33580;DHT22;19909;43.644;-79.438;2023-07-13T14:00:47;21.60;67.10
33580;DHT22;19909;43.644;-79.438;2023-07-13T14:03:18;21.60;67.40
33580;DHT22;19909;43.644;-79.438;2023-07-13T14:05:46;21.70;67.30
33580;DHT22;19909;43.644;-79.438;2023-07-13T14:08:18;21.70;68.00
33580;DHT22;19909;43.644;-79.438;2023-07-13T14:10:50;21.70;67.70
33580;DHT22;19909;43.644;-79.438;2023-07-13T14:13:25;21.70;66.40
33580;DHT22;19909;43.644;-79.438;2023-07-13T14:15:53;21.70;64.50
33580;DHT22;19909;43.644;-79.438;2023-07-13T14:18:19;21.70;64.80
33580;DHT22;19909;43.644;-79.438;2023-07-13T14:20:47;21.60;65.70
33580;DHT22;19909;43.644;-79.438;2023-07-13T14:23:14;21.60;66.10
33580;DHT22;19909;43.644;-79.438;2023-07-13T14:25:41;21.60;67.00
33580;DHT22;19909;43.644;-79.438;2023-07-13T14:30:48;21.60;67.20
33580;DHT22;19909;43.644;-79.438;2023-07-13T14:33:14;21.70;66.90
33580;DHT22;19909;43.644;-79.438;2023-07-13T14:35:41;21.70;67.40
33580;DHT22;19909;43.644;-79.438;2023-07-13T14:38:15;21.70;65.70
33580;DHT22;19909;43.644;-79.438;2023-07-13T14:40:41;21.70;64.10
33580;DHT22;19909;43.644;-79.438;2023-07-13T14:43:12;21.60;64.10
33580;DHT22;19909;43.644;-79.438;2023-07-13T14:45:49;21.60;64.80
33580;DHT22;19909;43.644;-79.438;2023-07-13T14:48:19;21.60;65.70
33580;DHT22;19909;43.644;-79.438;2023-07-13T14:50:46;21.60;66.00
33580;DHT22;19909;43.644;-79.438;2023-07-13T14:53:13;21.60;66.40
33580;DHT22;19909;43.644;-79.438;2023-07-13T14:55:40;21.60;66.50
33580;DHT22;19909;43.644;-79.438;2023-07-13T14:58:06;21.60;66.50
33580;DHT22;19909;43.644;-79.438;2023-07-13T15:00:33;21.60;66.40
33580;DHT22;19909;43.644;-79.438;2023-07-13T15:03:00;21.70;65.20
33580;DHT22;19909;43.644;-79.438;2023-07-13T15:05:29;21.70;63.70
33580;DHT22;19909;43.644;-79.438;2023-07-13T15:07:59;21.60;63.70
33580;DHT22;19909;43.644;-79.438;2023-07-13T15:10:28;21.60;64.10
33580;DHT22;19909;43.644;-79.438;2023-07-13T15:13:00;21.60;64.70
33580;DHT22;19909;43.644;-79.438;2023-07-13T15:15:28;21.60;65.20
33580;DHT22;19909;43.644;-79.438;2023-07-13T15:17:56;21.60;65.50
33580;DHT22;19909;43.644;-79.438;2023-07-13T15:20:28;21.60;65.90
33580;DHT22;19909;43.644;-79.438;2023-07-13T15:22:55;21.60;65.40
33580;DHT22;19909;43.644;-79.438;2023-07-13T15:25:26;21.60;63.90
33580;DHT22;19909;43.644;-79.438;2023-07-13T15:27:54;21.50;63.20
33580;DHT22;19909;43.644;-79.438;2023-07-13T15:30:21;21.50;64.00
33580;DHT22;19909;43.644;-79.438;2023-07-13T15:32:48;21.50;64.60
33580;DHT22;19909;43.644;-79.438;2023-07-13T15:35:20;21.50;65.50
33580;DHT22;19909;43.644;-79.438;2023-07-13T15:37:46;21.50;65.60
33580;DHT22;19909;43.644;-79.438;2023-07-13T15:40:14;21.50;66.10
33580;DHT22;19909;43.644;-79.438;2023-07-13T15:42:41;21.50;66.10
33580;DHT22;19909;43.644;-79.438;2023-07-13T15:47:41;21.50;64.80
33580;DHT22;19909;43.644;-79.438;2023-07-13T15:50:13;21.50;63.00
33580;DHT22;19909;43.644;-79.438;2023-07-13T15:52:39;21.50;63.60
33580;DHT22;19909;43.644;-79.438;2023-07-13T15:55:08;21.50;64.00
33580;DHT22;19909;43.644;-79.438;2023-07-13T15:57:35;21.50;64.80
33580;DHT22;19909;43.644;-79.438;2023-07-13T16:00:01;21.50;65.10